Time;durP1;ratioP1;P1;durP2;ratioP2;P2;SDS_P1;SDS_P2;PMS_P1;PMS_P2;Temp;Humidity;BMP_temperature;BMP_pressure;BME280_temperature;BME280_humidity;BME280_pressure;Samples;Min_cycle;Max_cycle;Signal;HPM_P1;HPM_P2
2023/04/28 00:00:36;;;;;;;122.90;41.70;;;;;;;2.17;73.35;98997.95;105241;1254;108610;-67
2023/04/28 00:03:11;;;;;;;114.90;38.70;;;;;;;2.12;73.14;98998.38;105328;1251;97907;-65
2023/04/28 00:05:45;;;;;;;112.90;38.60;;;;;;;2.04;73.22;99002.16;105326;1257;98009;-66
2023/04/28 00:08:17;;;;;;;115.20;40.10;;;;;;;1.96;73.73;99002.48;105092;1262;111137;-67
2023/04/28 00:10:51;;;;;;;110.50;37.70;;;;;;;1.91;73.64;99001.70;105321;1254;98270;-66
2023/04/28 00:13:18;;;;;;;122.60;41.50;;;;;;;1.86;73.68;98999.09;105488;1270;108526;-65
2023/04/28 00:15:45;;;;;;;117.60;39.10;;;;;;;1.79;73.92;98997.42;105358;1264;97852;-64
2023/04/28 00:18:12;;;;;;;93.50;33.50;;;;;;;1.77;74.21;98996.25;105301;1251;97909;-66
2023/04/28 00:20:39;;;;;;;98.60;34.90;;;;;;;1.77;74.25;98989.34;105304;1254;97926;-64
2023/04/28 00:23:07;;;;;;;94.80;34.80;;;;;;;1.76;74.05;98988.61;105282;1267;97974;-65
2023/04/28 00:25:33;;;;;;;78.30;31.40;;;;;;;1.71;74.22;98989.52;105218;1268;97933;-65
2023/04/28 00:28:01;;;;;;;73.40;30.50;;;;;;;1.66;74.45;98989.70;105235;1263;98040;-66
2023/04/28 00:30:29;;;;;;;75.90;31.00;;;;;;;1.62;74.29;98986.41;105265;1254;99076;-66
2023/04/28 00:32:56;;;;;;;79.40;30.80;;;;;;;1.61;74.47;98987.42;105305;1262;97971;-65
2023/04/28 00:35:24;;;;;;;79.60;31.20;;;;;;;1.65;74.78;98988.77;105191;1259;97916;-66
2023/04/28 00:37:51;;;;;;;72.70;29.00;;;;;;;1.72;74.63;98990.17;105257;1266;98447;-70
2023/04/28 00:40:18;;;;;;;65.60;26.60;;;;;;;1.70;74.39;98990.75;105151;1266;99132;-72
2023/04/28 00:42:45;;;;;;;56.80;23.10;;;;;;;1.62;74.32;98991.29;105314;1254;97844;-65
2023/04/28 00:45:12;;;;;;;57.80;23.70;;;;;;;1.56;74.18;98987.82;105308;1259;97987;-65
2023/04/28 00:47:41;;;;;;;55.20;23.60;;;;;;;1.48;74.37;98990.95;105297;1254;97907;-65
2023/04/28 00:50:09;;;;;;;57.40;24.10;;;;;;;1.45;74.64;98994.23;105301;1254;98063;-65
2023/04/28 00:52:38;;;;;;;53.30;22.30;;;;;;;1.41;74.84;98991.64;105309;1254;97893;-65
2023/04/28 00:55:08;;;;;;;55.10;22.60;;;;;;;1.35;74.77;98994.63;105314;1251;97936;-65
2023/04/28 00:57:35;;;;;;;50.40;22.40;;;;;;;1.29;74.65;98995.23;105124;1269;111224;-65
2023/04/28 01:00:03;;;;;;;58.60;23.40;;;;;;;1.21;74.92;98992.72;105422;1254;99268;-64
2023/04/28 01:02:31;;;;;;;58.30;24.20;;;;;;;1.16;75.11;98991.38;105344;1254;108537;-65
2023/04/28 01:04:59;;;;;;;61.00;24.90;;;;;;;1.09;75.28;98991.27;105370;1262;98008;-65
2023/04/28 01:07:26;;;;;;;65.70;26.60;;;;;;;1.02;75.56;98987.58;105387;1264;97926;-65
2023/04/28 01:09:54;;;;;;;62.80;27.00;;;;;;;0.97;75.79;98992.80;105336;1251;97970;-65
2023/04/28 01:12:22;;;;;;;66.80;26.70;;;;;;;1.00;75.73;98991.44;105131;1251;99133;-65
2023/04/28 01:14:49;;;;;;;75.60;28.80;;;;;;;1.03;75.66;98990.94;105324;1251;108009;-64
2023/04/28 01:17:17;;;;;;;72.70;29.80;;;;;;;1.04;75.64;98994.42;105284;1254;97876;-65
2023/04/28 01:19:44;;;;;;;63.60;29.30;;;;;;;1.06;75.58;98996.19;105138;1257;99608;-65
2023/04/28 01:22:15;;;;;;;70.00;28.80;;;;;;;1.11;75.70;98996.54;105382;1254;97886;-65
2023/04/28 01:24:42;;;;;;;62.90;25.30;;;;;;;1.18;75.53;98995.10;105155;1257;98072;-64
2023/04/28 01:27:10;;;;;;;54.00;23.50;;;;;;;1.22;75.36;98991.82;105313;1251;97986;-64
2023/04/28 01:29:37;;;;;;;52.80;23.60;;;;;;;1.24;75.51;98991.15;105356;1255;97901;-65
2023/04/28 01:32:04;;;;;;;64.20;26.40;;;;;;;1.24;75.47;98988.28;105242;1255;97929;-65
2023/04/28 01:34:32;;;;;;;67.90;27.00;;;;;;;1.24;75.54;98984.77;105234;1256;97905;-65
2023/04/28 01:36:59;;;;;;;58.60;25.70;;;;;;;1.25;75.43;98988.26;105319;1261;97970;-65
2023/04/28 01:39:26;;;;;;;60.60;26.90;;;;;;;1.23;75.64;98988.48;105332;1254;98359;-64
2023/04/28 01:41:53;;;;;;;58.10;24.50;;;;;;;1.19;75.55;98988.36;105257;1253;97873;-64
2023/04/28 01:44:20;;;;;;;61.60;26.20;;;;;;;1.13;75.53;98981.46;105238;1254;97995;-65
2023/04/28 01:46:47;;;;;;;64.50;26.40;;;;;;;1.05;75.82;98987.42;105342;1254;97838;-64
2023/04/28 01:49:15;;;;;;;62.20;26.50;;;;;;;0.93;76.43;98985.80;105242;1254;97876;-64
2023/04/28 01:51:42;;;;;;;68.80;27.20;;;;;;;0.86;76.61;98984.86;105235;1264;99250;-65
2023/04/28 01:54:09;;;;;;;64.70;27.30;;;;;;;0.85;76.75;98987.86;105278;1254;97897;-65
2023/04/28 01:56:36;;;;;;;72.90;27.20;;;;;;;0.87;76.61;98983.05;105266;1254;97893;-65
2023/04/28 01:59:04;;;;;;;69.40;28.20;;;;;;;0.87;76.68;98985.38;105332;1263;97900;-67
2023/04/28 02:01:31;;;;;;;84.10;32.20;;;;;;;0.87;76.57;98986.17;105333;1264;98354;-67
2023/04/28 02:03:58;;;;;;;79.40;30.30;;;;;;;0.83;76.66;98987.77;105045;1259;98074;-64
2023/04/28 02:06:26;;;;;;;80.40;30.90;;;;;;;0.84;76.68;98987.14;105211;1264;97891;-64
2023/04/28 02:08:54;;;;;;;73.30;29.10;;;;;;;0.79;76.99;98985.34;105093;1266;111141;-65
2023/04/28 02:11:21;;;;;;;65.90;26.80;;;;;;;0.73;77.10;98984.96;105222;1253;97823;-66
2023/04/28 02:13:51;;;;;;;56.70;25.80;;;;;;;0.71;77.31;98981.23;105229;1264;97886;-65
2023/04/28 02:16:26;;;;;;;52.80;24.50;;;;;;;0.64;77.47;98983.90;104916;1259;97957;-65
2023/04/28 02:19:01;;;;;;;53.70;25.40;;;;;;;0.59;77.62;98985.88;105135;1257;99506;-65
2023/04/28 02:21:37;;;;;;;60.10;26.50;;;;;;;0.65;77.78;98989.48;105250;1255;111906;-64
2023/04/28 02:24:08;;;;;;;77.30;32.30;;;;;;;0.68;77.63;98990.04;105054;1266;99382;-65
2023/04/28 02:26:40;;;;;;;78.80;32.30;;;;;;;0.69;77.65;98991.77;105090;1254;107789;-67
2023/04/28 02:29:17;;;;;;;81.80;38.40;;;;;;;0.70;77.71;98988.56;105312;1256;97912;-65
2023/04/28 02:31:58;;;;;;;68.50;31.70;;;;;;;0.70;77.67;98981.17;105123;1261;98008;-66
2023/04/28 02:34:30;;;;;;;63.60;28.70;;;;;;;0.68;78.26;98977.15;105126;1252;111883;-65
2023/04/28 02:37:04;;;;;;;62.70;26.80;;;;;;;0.64;78.30;98976.70;105316;1258;98952;-66
2023/04/28 02:39:34;;;;;;;58.20;27.30;;;;;;;0.64;78.33;98979.92;105327;1259;108188;-66
2023/04/28 02:42:04;;;;;;;72.20;31.90;;;;;;;0.56;78.56;98980.04;105382;1256;99077;-64
2023/04/28 02:44:31;;;;;;;73.30;31.60;;;;;;;0.39;78.35;98979.92;105078;1258;98797;-64
2023/04/28 02:46:59;;;;;;;61.10;27.70;;;;;;;0.33;78.74;98978.56;105340;1263;97884;-65
2023/04/28 02:49:26;;;;;;;62.00;29.90;;;;;;;0.34;78.66;98977.46;105252;1260;99151;-66
2023/04/28 02:51:53;;;;;;;80.10;36.10;;;;;;;0.36;78.60;98975.01;105342;1253;98338;-65
2023/04/28 02:54:26;;;;;;;78.20;38.40;;;;;;;0.42;78.55;98971.83;105329;1254;97990;-65
2023/04/28 02:56:54;;;;;;;71.70;33.00;;;;;;;0.49;78.52;98968.63;105055;1264;98428;-65
2023/04/28 02:59:23;;;;;;;70.40;32.40;;;;;;;0.53;78.43;98968.54;104992;1251;111452;-65
2023/04/28 03:01:50;;;;;;;69.20;31.90;;;;;;;0.56;78.05;98972.86;105084;1270;98105;-65
2023/04/28 03:04:17;;;;;;;65.20;28.50;;;;;;;0.58;78.05;98971.01;105309;1254;108479;-65
2023/04/28 03:06:46;;;;;;;64.30;28.30;;;;;;;0.53;78.12;98975.98;105335;1256;97973;-65
2023/04/28 03:09:15;;;;;;;53.70;26.10;;;;;;;0.44;78.29;98979.02;105284;1255;98554;-65
2023/04/28 03:11:41;;;;;;;55.30;25.50;;;;;;;0.42;78.87;98980.99;105053;1257;111016;-64
2023/04/28 03:14:09;;;;;;;50.40;24.70;;;;;;;0.43;79.15;98976.55;105431;1255;97851;-65
2023/04/28 03:16:37;;;;;;;53.40;23.50;;;;;;;0.45;79.46;98974.68;105262;1254;97900;-65
2023/04/28 03:19:04;;;;;;;50.50;23.10;;;;;;;0.45;79.35;98980.86;105222;1253;97889;-64
2023/04/28 03:21:31;;;;;;;52.60;24.20;;;;;;;0.48;79.52;98978.80;105320;1254;97901;-66
2023/04/28 03:23:58;;;;;;;52.20;24.30;;;;;;;0.46;79.46;98983.19;105394;1254;97972;-70
2023/04/28 03:26:25;;;;;;;53.50;23.90;;;;;;;0.43;79.54;98982.80;105347;1253;99139;-65
2023/04/28 03:28:52;;;;;;;53.70;24.50;;;;;;;0.41;79.42;98980.23;105316;1263;98002;-65
2023/04/28 03:31:19;;;;;;;42.30;18.90;;;;;;;0.38;80.18;98979.30;105300;1254;97912;-65
2023/04/28 03:33:46;;;;;;;46.70;21.50;;;;;;;0.27;81.31;98972.77;105328;1255;99180;-65
2023/04/28 03:36:12;;;;;;;55.80;24.80;;;;;;;0.24;81.58;98971.73;105353;1250;99321;-65
2023/04/28 03:38:40;;;;;;;50.90;24.30;;;;;;;0.25;81.66;98965.41;105307;1254;108606;-65
2023/04/28 03:41:07;;;;;;;52.50;24.90;;;;;;;0.29;82.05;98966.33;105293;1263;99252;-65
2023/04/28 03:43:36;;;;;;;47.80;22.90;;;;;;;0.31;82.52;98962.83;105272;1250;97940;-64
2023/04/28 03:46:03;;;;;;;52.90;23.90;;;;;;;0.35;83.13;98959.02;105294;1254;112159;-64
2023/04/28 03:48:30;;;;;;;48.20;21.30;;;;;;;0.40;83.37;98957.27;105235;1257;98169;-64
2023/04/28 03:50:57;;;;;;;55.70;24.60;;;;;;;0.45;83.75;98953.93;105261;1254;98002;-64
2023/04/28 03:53:24;;;;;;;55.60;23.60;;;;;;;0.51;83.77;98953.84;105302;1265;97896;-64
2023/04/28 03:55:51;;;;;;;62.60;23.50;;;;;;;0.59;83.62;98951.89;105370;1253;99183;-64
2023/04/28 03:58:18;;;;;;;49.90;21.30;;;;;;;0.67;83.82;98953.59;105290;1255;98780;-65
2023/04/28 04:00:46;;;;;;;48.40;22.60;;;;;;;0.76;84.00;98954.85;105398;1250;97971;-65
2023/04/28 04:03:16;;;;;;;52.60;21.60;;;;;;;0.84;83.97;98953.67;105220;1252;108650;-65
2023/04/28 04:05:43;;;;;;;40.10;17.20;;;;;;;0.92;83.44;98955.28;105291;1258;97973;-65
2023/04/28 04:08:10;;;;;;;44.20;20.90;;;;;;;1.01;83.41;98959.00;105316;1270;97886;-65
2023/04/28 04:10:37;;;;;;;43.60;20.30;;;;;;;1.13;83.18;98959.70;105331;1254;97968;-65
2023/04/28 04:13:04;;;;;;;44.10;20.70;;;;;;;1.28;82.77;98960.40;105335;1254;97903;-64
2023/04/28 04:15:31;;;;;;;41.40;20.30;;;;;;;1.44;82.57;98964.09;105238;1255;98376;-65
2023/04/28 04:17:58;;;;;;;46.20;22.30;;;;;;;1.60;82.30;98965.57;105297;1255;98821;-64
2023/04/28 04:20:25;;;;;;;44.10;19.40;;;;;;;1.76;81.91;98973.27;105270;1253;98002;-66
2023/04/28 04:22:52;;;;;;;45.00;21.90;;;;;;;1.92;81.51;98975.27;105211;1256;97902;-65
2023/04/28 04:25:19;;;;;;;48.80;21.90;;;;;;;2.06;80.99;98975.88;105321;1256;97981;-65
2023/04/28 04:27:48;;;;;;;42.90;22.20;;;;;;;2.21;80.88;98977.95;105350;1255;99227;-64
2023/04/28 04:30:15;;;;;;;46.70;22.70;;;;;;;2.40;80.41;98976.95;105311;1264;97976;-65
2023/04/28 04:32:42;;;;;;;49.00;22.70;;;;;;;2.57;79.62;98975.20;105258;1251;98567;-65
2023/04/28 04:35:09;;;;;;;43.50;21.10;;;;;;;2.71;79.34;98979.23;105284;1254;97890;-63
2023/04/28 04:37:36;;;;;;;43.50;21.30;;;;;;;2.82;78.96;98979.64;105128;1256;97931;-64
2023/04/28 04:40:04;;;;;;;46.80;20.40;;;;;;;3.01;78.88;98977.50;105154;1251;97977;-63
2023/04/28 04:42:31;;;;;;;46.00;21.00;;;;;;;3.18;78.21;98975.27;105364;1254;97892;-66
2023/04/28 04:44:58;;;;;;;39.20;19.80;;;;;;;3.30;78.15;98975.59;105235;1253;97928;-64
2023/04/28 04:47:25;;;;;;;47.20;21.80;;;;;;;3.38;77.52;98977.89;105349;1255;97908;-65
2023/04/28 04:49:52;;;;;;;41.50;20.50;;;;;;;3.45;77.52;98980.01;105130;1261;98036;-65
2023/04/28 04:52:19;;;;;;;41.50;20.40;;;;;;;3.56;77.56;98978.62;105227;1254;97913;-65
2023/04/28 04:54:46;;;;;;;43.10;22.50;;;;;;;3.62;77.37;98984.74;105304;1254;97869;-64
2023/04/28 04:57:13;;;;;;;41.50;20.90;;;;;;;3.68;77.08;98982.61;105358;1263;97987;-65
2023/04/28 04:59:40;;;;;;;42.50;22.30;;;;;;;3.70;77.25;98983.23;105299;1250;98395;-64
2023/04/28 05:02:07;;;;;;;38.80;20.30;;;;;;;3.75;76.81;98983.48;105275;1264;98042;-64
2023/04/28 05:04:34;;;;;;;40.70;18.70;;;;;;;3.78;76.32;98983.77;105353;1250;97900;-64
2023/04/28 05:07:01;;;;;;;40.00;19.70;;;;;;;3.79;76.49;98982.02;105302;1254;99294;-64
2023/04/28 05:09:29;;;;;;;45.40;23.10;;;;;;;3.88;76.69;98978.95;105423;1250;97906;-64
2023/04/28 05:11:56;;;;;;;35.80;18.10;;;;;;;3.99;76.16;98980.06;105311;1256;97913;-65
2023/04/28 05:14:23;;;;;;;39.70;20.70;;;;;;;4.10;76.28;98974.96;105364;1253;99215;-64
2023/04/28 05:16:50;;;;;;;43.50;21.60;;;;;;;4.21;75.98;98980.13;105510;1254;97909;-64
2023/04/28 05:19:17;;;;;;;42.60;21.70;;;;;;;4.32;75.99;98980.44;105175;1256;99209;-64
2023/04/28 05:21:46;;;;;;;54.90;26.30;;;;;;;4.41;76.16;98979.45;105224;1253;97952;-64
2023/04/28 05:24:14;;;;;;;63.30;29.20;;;;;;;4.41;76.84;98975.70;104953;1260;97914;-64
2023/04/28 05:26:41;;;;;;;63.80;32.30;;;;;;;4.47;76.94;98978.07;105331;1256;99090;-64
2023/04/28 05:29:08;;;;;;;73.20;32.40;;;;;;;4.60;77.22;98975.51;105281;1256;99279;-64
2023/04/28 05:31:35;;;;;;;43.80;23.10;;;;;;;4.79;76.67;98975.78;105315;1266;98324;-64
2023/04/28 05:34:02;;;;;;;43.80;21.80;;;;;;;4.97;75.60;98974.46;105310;1273;98326;-64
2023/04/28 05:36:30;;;;;;;39.50;20.20;;;;;;;5.13;74.21;98973.52;105295;1254;98006;-65
2023/04/28 05:38:57;;;;;;;47.40;23.40;;;;;;;5.08;73.22;98980.69;105393;1254;97878;-64
2023/04/28 05:41:25;;;;;;;46.00;22.80;;;;;;;5.07;74.17;98980.63;105384;1252;97960;-64
2023/04/28 05:43:52;;;;;;;44.80;20.90;;;;;;;5.21;74.28;98975.38;105307;1250;97903;-64
2023/04/28 05:46:19;;;;;;;39.30;19.10;;;;;;;5.31;73.62;98968.42;105303;1255;98388;-64
2023/04/28 05:48:56;;;;;;;39.30;19.20;;;;;;;5.37;72.81;98971.63;105091;1258;99202;-65
2023/04/28 05:51:23;;;;;;;31.30;17.30;;;;;;;5.40;72.71;98968.54;105273;1249;97897;-65
2023/04/28 05:53:50;;;;;;;44.40;21.50;;;;;;;5.51;72.83;98973.05;105334;1254;97968;-65
2023/04/28 05:56:18;;;;;;;43.40;20.70;;;;;;;5.70;73.11;98968.73;105241;1253;97822;-65
2023/04/28 05:58:46;;;;;;;33.60;18.10;;;;;;;5.87;71.61;98966.43;105360;1254;97973;-65
2023/04/28 06:01:13;;;;;;;41.00;19.90;;;;;;;5.87;70.57;98968.29;105230;1254;98091;-65
2023/04/28 06:03:40;;;;;;;33.60;18.60;;;;;;;5.82;70.80;98970.20;105280;1250;98011;-67
2023/04/28 06:06:09;;;;;;;48.50;22.00;;;;;;;5.89;71.65;98965.73;105281;1254;99199;-68
2023/04/28 06:08:37;;;;;;;42.80;19.80;;;;;;;6.12;71.55;98972.83;105169;1258;99240;-65
2023/04/28 06:11:05;;;;;;;43.10;19.40;;;;;;;6.39;70.85;98972.25;105316;1255;106818;-66
2023/04/28 06:13:32;;;;;;;34.20;16.10;;;;;;;6.65;69.45;98973.30;105403;1256;97913;-65
2023/04/28 06:16:00;;;;;;;33.90;15.20;;;;;;;6.81;69.17;98974.79;105346;1253;98420;-67
2023/04/28 06:18:31;;;;;;;30.60;15.90;;;;;;;6.96;68.24;98973.95;105314;1250;99054;-65
2023/04/28 06:20:59;;;;;;;35.90;17.30;;;;;;;7.13;67.77;98975.52;105401;1254;99231;-67
2023/04/28 06:23:26;;;;;;;28.60;15.30;;;;;;;7.27;66.93;98972.48;105182;1258;108112;-67
2023/04/28 06:25:54;;;;;;;25.20;13.30;;;;;;;7.39;66.15;98964.82;105193;1254;97957;-66
2023/04/28 06:28:21;;;;;;;39.70;22.60;;;;;;;7.48;66.12;98964.63;104826;1261;98369;-68
2023/04/28 06:30:49;;;;;;;32.90;16.00;;;;;;;7.66;66.57;98965.08;104773;1263;112549;-67
2023/04/28 06:33:16;;;;;;;38.50;17.30;;;;;;;7.85;65.70;98966.27;104778;1261;99118;-67
2023/04/28 06:35:43;;;;;;;27.60;15.50;;;;;;;7.99;65.40;98964.71;104843;1261;98070;-67
2023/04/28 06:38:11;;;;;;;24.70;13.30;;;;;;;8.18;65.01;98961.67;104714;1258;98095;-66
2023/04/28 06:40:39;;;;;;;25.20;13.70;;;;;;;8.33;63.28;98963.95;104811;1261;99054;-66
2023/04/28 06:43:06;;;;;;;17.50;10.10;;;;;;;8.50;62.70;98966.05;104864;1257;112234;-66
2023/04/28 06:45:33;;;;;;;21.40;10.80;;;;;;;8.62;60.67;98961.02;104554;1261;99412;-65
2023/04/28 06:48:01;;;;;;;19.50;11.30;;;;;;;8.70;61.14;98959.11;104817;1261;98132;-65
2023/04/28 06:50:28;;;;;;;27.00;15.60;;;;;;;8.92;62.14;98955.36;104867;1274;98086;-66
2023/04/28 06:52:56;;;;;;;24.70;13.30;;;;;;;9.19;61.56;98957.88;105011;1258;98102;-65
2023/04/28 06:55:24;;;;;;;24.40;11.90;;;;;;;9.42;60.06;98957.95;105370;1264;99166;-66
2023/04/28 06:57:51;;;;;;;22.00;12.90;;;;;;;9.53;58.80;98955.97;105114;1254;323462;-66
2023/04/28 07:00:18;;;;;;;20.00;10.20;;;;;;;9.59;58.58;98952.59;105363;1255;97887;-66
2023/04/28 07:02:45;;;;;;;20.70;10.10;;;;;;;9.70;57.03;98949.27;105303;1250;98997;-66
2023/04/28 07:05:13;;;;;;;16.90;10.00;;;;;;;9.77;56.60;98942.63;105362;1249;99140;-66
2023/04/28 07:07:42;;;;;;;21.80;11.20;;;;;;;9.86;56.29;98937.08;105245;1250;112322;-66
2023/04/28 07:10:10;;;;;;;19.40;11.20;;;;;;;9.95;56.49;98933.45;105242;1249;99084;-66
2023/04/28 07:12:38;;;;;;;16.80;9.70;;;;;;;10.17;57.58;98932.26;105184;1254;107524;-66
2023/04/28 07:15:06;;;;;;;20.60;10.80;;;;;;;10.41;56.11;98931.02;105247;1264;97885;-65
2023/04/28 07:17:36;;;;;;;18.80;11.40;;;;;;;10.52;56.07;98928.56;105331;1254;99206;-66
2023/04/28 07:20:05;;;;;;;21.40;10.60;;;;;;;10.66;56.81;98928.39;105327;1263;112210;-66
2023/04/28 07:22:32;;;;;;;18.60;10.70;;;;;;;10.84;55.69;98928.55;105046;1257;98241;-66
2023/04/28 07:25:00;;;;;;;17.00;9.70;;;;;;;10.96;55.19;98926.03;105301;1253;97941;-67
2023/04/28 07:27:27;;;;;;;18.40;10.50;;;;;;;11.16;54.60;98927.00;105187;1255;97888;-67
2023/04/28 07:29:54;;;;;;;17.30;9.90;;;;;;;11.32;53.57;98924.58;105373;1253;97932;-67
2023/04/28 07:32:22;;;;;;;15.40;9.60;;;;;;;11.42;53.99;98924.29;105375;1265;97984;-67
2023/04/28 07:34:50;;;;;;;17.80;10.50;;;;;;;11.63;53.43;98917.83;105409;1265;99414;-67
2023/04/28 07:37:17;;;;;;;14.50;8.90;;;;;;;11.83;52.51;98916.83;105302;1254;97893;-67
2023/04/28 07:39:45;;;;;;;15.10;9.00;;;;;;;11.91;51.45;98915.40;105355;1250;98548;-65
2023/04/28 07:42:12;;;;;;;13.90;7.90;;;;;;;12.11;51.47;98915.56;105359;1254;98285;-66
2023/04/28 07:44:39;;;;;;;17.50;9.70;;;;;;;12.22;49.80;98912.55;105364;1256;99202;-66
2023/04/28 07:47:07;;;;;;;15.90;8.50;;;;;;;12.40;50.06;98910.59;105371;1255;97898;-65
2023/04/28 07:49:34;;;;;;;12.00;7.50;;;;;;;12.77;50.91;98907.44;105144;1257;107975;-65
2023/04/28 07:52:02;;;;;;;13.20;7.50;;;;;;;13.08;49.26;98908.23;105369;1254;98000;-65
2023/04/28 07:54:29;;;;;;;10.80;7.20;;;;;;;13.20;46.46;98907.86;105331;1254;98278;-65
2023/04/28 07:56:57;;;;;;;8.60;6.10;;;;;;;13.29;46.98;98903.02;105319;1256;97971;-65
2023/04/28 07:59:23;;;;;;;10.70;7.40;;;;;;;13.57;45.82;98902.33;105238;1273;98012;-66
2023/04/28 08:01:51;;;;;;;13.60;7.60;;;;;;;13.72;45.79;98900.92;105341;1255;97965;-66
2023/04/28 08:04:18;;;;;;;10.30;7.10;;;;;;;13.86;47.05;98901.81;105288;1253;97983;-65
2023/04/28 08:06:46;;;;;;;8.20;4.90;;;;;;;14.20;45.77;98898.20;105420;1253;99730;-65
2023/04/28 08:09:14;;;;;;;10.50;6.80;;;;;;;14.26;43.98;98898.35;105388;1265;97967;-65
2023/04/28 08:11:42;;;;;;;7.80;5.50;;;;;;;14.33;44.52;98891.47;105434;1250;98286;-66
2023/04/28 08:14:09;;;;;;;7.10;4.40;;;;;;;14.47;43.24;98891.32;105360;1253;97896;-66
2023/04/28 08:16:39;;;;;;;8.80;5.30;;;;;;;14.67;41.31;98891.29;105379;1255;98252;-65
2023/04/28 08:19:07;;;;;;;8.90;5.40;;;;;;;14.97;41.65;98888.61;105486;1252;99025;-65
2023/04/28 08:21:35;;;;;;;9.40;5.50;;;;;;;15.35;41.94;98882.13;105270;1257;111692;-66
2023/04/28 08:24:02;;;;;;;9.20;5.20;;;;;;;15.82;40.75;98882.06;105316;1257;99234;-65
2023/04/28 08:26:30;;;;;;;10.60;5.30;;;;;;;16.22;39.03;98878.23;105459;1252;99212;-65
2023/04/28 08:28:58;;;;;;;7.30;5.20;;;;;;;16.35;37.46;98883.88;105434;1253;99195;-66
2023/04/28 08:31:25;;;;;;;9.50;4.90;;;;;;;16.40;36.44;98882.12;105431;1252;99075;-65
2023/04/28 08:33:53;;;;;;;7.40;4.70;;;;;;;16.37;36.26;98878.70;105467;1254;111788;-66
2023/04/28 08:36:27;;;;;;;7.10;5.10;;;;;;;16.27;36.09;98881.07;105206;1250;98224;-65
2023/04/28 08:38:57;;;;;;;9.40;5.40;;;;;;;16.46;36.42;98874.07;105460;1264;108107;-65
2023/04/28 08:41:28;;;;;;;11.50;5.60;;;;;;;16.76;36.59;98873.30;105218;1254;97964;-65
2023/04/28 08:43:57;;;;;;;9.90;4.80;;;;;;;17.08;36.12;98874.14;105299;1251;97980;-67
2023/04/28 08:46:26;;;;;;;8.70;5.70;;;;;;;17.30;34.90;98868.73;105137;1250;111821;-65
2023/04/28 08:49:00;;;;;;;8.30;4.90;;;;;;;17.45;35.64;98867.16;105405;1257;99605;-66
2023/04/28 08:51:35;;;;;;;25.50;10.80;;;;;;;17.76;35.39;98861.44;105327;1272;107611;-66
2023/04/28 08:54:07;;;;;;;7.40;4.70;;;;;;;18.07;34.32;98859.11;105417;1263;97863;-66
2023/04/28 08:56:37;;;;;;;7.40;4.80;;;;;;;18.31;35.14;98857.38;105399;1251;98281;-66
2023/04/28 08:59:05;;;;;;;7.70;5.30;;;;;;;18.62;34.44;98855.67;105449;1253;112210;-65
2023/04/28 09:01:33;;;;;;;7.80;4.70;;;;;;;18.93;33.89;98851.31;105527;1252;99177;-66
2023/04/28 09:04:01;;;;;;;8.10;4.50;;;;;;;18.94;32.20;98852.05;105453;1252;108698;-66
2023/04/28 09:06:37;;;;;;;11.90;5.80;;;;;;;18.83;33.36;98850.95;105351;1257;97980;-65
2023/04/28 09:09:24;;;;;;;26.50;10.10;;;;;;;19.19;33.36;98851.91;105436;1251;97980;-66
2023/04/28 09:11:54;;;;;;;5.60;4.20;;;;;;;19.56;32.12;98848.45;105419;1253;112272;-66
2023/04/28 09:14:22;;;;;;;8.00;4.40;;;;;;;19.63;30.84;98845.25;105429;1251;99772;-66
2023/04/28 09:16:50;;;;;;;5.60;4.30;;;;;;;19.67;31.23;98843.33;105415;1253;108565;-66
2023/04/28 09:19:18;;;;;;;9.00;4.10;;;;;;;19.88;29.98;98838.89;105335;1253;98269;-66
2023/04/28 09:21:47;;;;;;;9.90;4.90;;;;;;;19.89;30.15;98841.22;105371;1252;98319;-66
2023/04/28 09:24:42;;;;;;;6.20;3.30;;;;;;;20.03;29.33;98838.85;105370;1263;112638;-65
2023/04/28 09:27:10;;;;;;;9.60;4.50;;;;;;;20.04;29.23;98841.64;105364;1252;99183;-66
2023/04/28 09:29:50;;;;;;;5.50;2.90;;;;;;;20.20;29.59;98834.17;105413;1252;108681;-66
2023/04/28 09:32:22;;;;;;;79.30;28.40;;;;;;;20.60;29.79;98834.71;105069;1259;98017;-66
2023/04/28 09:34:52;;;;;;;7.80;4.10;;;;;;;21.03;29.23;98833.10;105400;1252;97966;-66
2023/04/28 09:37:22;;;;;;;5.00;3.10;;;;;;;21.19;28.53;98830.90;105165;1250;111278;-66
2023/04/28 09:39:53;;;;;;;7.40;3.60;;;;;;;21.11;27.26;98831.77;105440;1252;98845;-65
2023/04/28 09:42:43;;;;;;;6.30;3.90;;;;;;;21.01;27.16;98826.96;105311;1252;108647;-65
2023/04/28 09:45:12;;;;;;;7.30;4.60;;;;;;;20.87;27.22;98825.33;105290;1253;97889;-65
2023/04/28 09:47:42;;;;;;;7.20;3.90;;;;;;;21.06;27.99;98815.23;105205;1248;97971;-66
2023/04/28 09:50:13;;;;;;;5.20;2.60;;;;;;;21.40;27.37;98813.50;105222;1259;111563;-66
2023/04/28 09:52:43;;;;;;;4.10;2.50;;;;;;;21.44;26.62;98808.20;105624;1262;99316;-65
2023/04/28 09:55:11;;;;;;;5.40;3.10;;;;;;;21.37;25.87;98805.75;105417;1250;109102;-65
2023/04/28 09:57:39;;;;;;;4.80;3.30;;;;;;;20.91;26.65;98801.36;105414;1249;97817;-65
2023/04/28 10:00:08;;;;;;;9.60;5.00;;;;;;;21.12;27.44;98800.33;105280;1257;98164;-64
2023/04/28 10:02:36;;;;;;;3.60;2.80;;;;;;;21.49;27.21;98800.29;105116;1259;110984;-65
2023/04/28 10:05:08;;;;;;;4.70;2.80;;;;;;;21.47;26.37;98792.52;105407;1253;101461;-69
2023/04/28 10:07:38;;;;;;;4.20;2.40;;;;;;;21.18;27.02;98789.32;105324;1254;108515;-66
2023/04/28 10:10:07;;;;;;;6.50;3.20;;;;;;;21.19;26.05;98777.62;105401;1252;99169;-66
2023/04/28 10:12:37;;;;;;;5.10;2.90;;;;;;;21.25;26.78;98773.55;105434;1252;97906;-66
2023/04/28 10:15:06;;;;;;;5.80;3.60;;;;;;;21.33;25.80;98773.85;105402;1253;112301;-66
2023/04/28 10:17:35;;;;;;;4.30;2.80;;;;;;;21.49;26.64;98770.40;105462;1252;98987;-66
2023/04/28 10:20:04;;;;;;;6.00;3.20;;;;;;;21.76;25.38;98772.00;105401;1256;108740;-66
2023/04/28 10:23:04;;;;;;;6.00;3.50;;;;;;;21.75;25.63;98765.84;105439;1263;98317;-66
2023/04/28 10:25:35;;;;;;;6.20;3.90;;;;;;;22.11;25.89;98767.67;105424;1251;99069;-66
2023/04/28 10:28:08;;;;;;;;;;;;;;;22.56;26.39;98763.67;105454;1253;112054;-64
2023/04/28 10:30:36;;;;;;;5.30;3.10;;;;;;;22.93;25.69;98751.75;105442;1251;99738;-65
2023/04/28 10:33:13;;;;;;;4.20;2.80;;;;;;;22.74;25.00;98752.65;105434;1253;108501;-65
2023/04/28 10:35:45;;;;;;;6.10;2.70;;;;;;;22.22;25.95;98752.73;105391;1253;97980;-65
2023/04/28 10:38:23;;;;;;;6.20;3.30;;;;;;;22.45;26.81;98751.73;105436;1257;98676;-65
2023/04/28 10:41:00;;;;;;;6.20;2.80;;;;;;;22.40;26.94;98744.30;105062;1258;111665;-65
2023/04/28 10:43:38;;;;;;;6.10;3.10;;;;;;;22.38;26.57;98739.11;105181;1257;98593;-64
2023/04/28 10:46:07;;;;;;;4.60;2.50;;;;;;;22.19;25.93;98734.95;105284;1253;108379;-64
2023/04/28 10:48:46;;;;;;;4.90;2.30;;;;;;;22.21;25.42;98737.67;105352;1263;99100;-64
2023/04/28 10:51:13;;;;;;;3.90;2.50;;;;;;;22.55;24.68;98732.33;105423;1250;99113;-64
2023/04/28 10:53:47;;;;;;;4.80;3.00;;;;;;;22.65;24.97;98727.58;105225;1252;99178;-65
2023/04/28 10:56:25;;;;;;;6.40;4.80;;;;;;;22.92;25.96;98717.50;105593;1250;99998;-64
2023/04/28 10:58:54;;;;;;;5.70;3.50;;;;;;;23.49;25.26;98714.67;105264;1253;108605;-64
2023/04/28 11:01:21;;;;;;;4.00;2.80;;;;;;;23.80;24.46;98708.88;105332;1263;99186;-64
2023/04/28 11:03:52;;;;;;;2.90;2.20;;;;;;;23.92;23.98;98702.79;105308;1250;97910;-64
2023/04/28 11:06:27;;;;;;;5.40;2.60;;;;;;;23.81;22.84;98704.09;105032;1257;110984;-64
2023/04/28 11:08:56;;;;;;;4.80;2.40;;;;;;;23.57;23.01;98703.65;105169;1250;98367;-64
2023/04/28 11:11:25;;;;;;;6.80;3.20;;;;;;;23.73;24.36;98700.83;105250;1258;107103;-63
2023/04/28 11:13:55;;;;;;;6.80;3.20;;;;;;;24.15;23.60;98697.21;105336;1257;98201;-64
2023/04/28 11:16:24;;;;;;;6.10;3.60;;;;;;;24.32;24.95;98698.60;105079;1258;99664;-63
2023/04/28 11:18:57;;;;;;;6.30;4.20;;;;;;;24.12;25.58;98695.46;105410;1253;112348;-65
2023/04/28 11:21:27;;;;;;;4.60;2.90;;;;;;;23.68;25.36;98692.05;105225;1257;98164;-64
2023/04/28 11:23:54;;;;;;;6.20;3.80;;;;;;;23.43;24.82;98694.39;105069;1256;107544;-64